sensor_id;sensor_type;location;lat;lon;timestamp;temperature;humidity
75164;HTU21D;63746;45.402;37.922;2023-04-15T00:00:07;11.00;71.49
75164;HTU21D;63746;45.402;37.922;2023-04-15T00:02:43;10.98;71.48
75164;HTU21D;63746;45.402;37.922;2023-04-15T00:05:09;10.98;71.45
75164;HTU21D;63746;45.402;37.922;2023-04-15T00:07:35;10.96;71.42
75164;HTU21D;63746;45.402;37.922;2023-04-15T00:10:01;10.95;71.40
75164;HTU21D;63746;45.402;37.922;2023-04-15T00:12:28;10.94;71.34
75164;HTU21D;63746;45.402;37.922;2023-04-15T00:14:54;10.88;71.24
75164;HTU21D;63746;45.402;37.922;2023-04-15T00:17:21;10.86;71.19
75164;HTU21D;63746;45.402;37.922;2023-04-15T00:19:47;10.81;71.16
75164;HTU21D;63746;45.402;37.922;2023-04-15T00:22:14;10.77;71.10
75164;HTU21D;63746;45.402;37.922;2023-04-15T00:24:40;10.72;71.15
75164;HTU21D;63746;45.402;37.922;2023-04-15T00:27:06;10.69;71.19
75164;HTU21D;63746;45.402;37.922;2023-04-15T00:29:32;10.65;71.22
75164;HTU21D;63746;45.402;37.922;2023-04-15T00:31:58;10.63;71.25
75164;HTU21D;63746;45.402;37.922;2023-04-15T00:34:26;10.58;71.21
75164;HTU21D;63746;45.402;37.922;2023-04-15T00:36:52;10.55;71.22
75164;HTU21D;63746;45.402;37.922;2023-04-15T00:39:19;10.51;71.24
75164;HTU21D;63746;45.402;37.922;2023-04-15T00:41:46;10.49;71.28
75164;HTU21D;63746;45.402;37.922;2023-04-15T00:44:12;10.45;71.22
75164;HTU21D;63746;45.402;37.922;2023-04-15T00:46:39;10.43;71.19
75164;HTU21D;63746;45.402;37.922;2023-04-15T00:49:06;10.38;71.22
75164;HTU21D;63746;45.402;37.922;2023-04-15T00:51:33;10.35;71.28
75164;HTU21D;63746;45.402;37.922;2023-04-15T00:54:05;10.33;71.32
75164;HTU21D;63746;45.402;37.922;2023-04-15T00:56:36;10.31;71.35
75164;HTU21D;63746;45.402;37.922;2023-04-15T00:59:06;10.29;71.39
75164;HTU21D;63746;45.402;37.922;2023-04-15T01:01:36;10.28;71.41
75164;HTU21D;63746;45.402;37.922;2023-04-15T01:04:04;10.26;71.39
75164;HTU21D;63746;45.402;37.922;2023-04-15T01:06:30;10.25;71.39
75164;HTU21D;63746;45.402;37.922;2023-04-15T01:08:58;10.23;71.43
75164;HTU21D;63746;45.402;37.922;2023-04-15T01:11:24;10.23;71.44
75164;HTU21D;63746;45.402;37.922;2023-04-15T01:13:51;10.24;71.43
75164;HTU21D;63746;45.402;37.922;2023-04-15T01:16:18;10.22;71.39
75164;HTU21D;63746;45.402;37.922;2023-04-15T01:18:44;10.21;71.41
75164;HTU21D;63746;45.402;37.922;2023-04-15T01:21:11;10.20;71.37
75164;HTU21D;63746;45.402;37.922;2023-04-15T01:23:38;10.20;71.38
75164;HTU21D;63746;45.402;37.922;2023-04-15T01:26:06;10.16;71.37
75164;HTU21D;63746;45.402;37.922;2023-04-15T01:28:34;10.14;71.36
75164;HTU21D;63746;45.402;37.922;2023-04-15T01:31:05;10.13;71.31
75164;HTU21D;63746;45.402;37.922;2023-04-15T01:33:35;10.12;71.27
75164;HTU21D;63746;45.402;37.922;2023-04-15T01:36:02;10.10;71.30
75164;HTU21D;63746;45.402;37.922;2023-04-15T01:38:29;10.09;71.32
75164;HTU21D;63746;45.402;37.922;2023-04-15T01:40:55;10.07;71.36
75164;HTU21D;63746;45.402;37.922;2023-04-15T01:43:24;10.07;71.36
75164;HTU21D;63746;45.402;37.922;2023-04-15T01:45:50;10.05;71.37
75164;HTU21D;63746;45.402;37.922;2023-04-15T01:48:16;10.05;71.37
75164;HTU21D;63746;45.402;37.922;2023-04-15T01:50:43;10.05;71.38
75164;HTU21D;63746;45.402;37.922;2023-04-15T01:53:09;10.03;71.37
75164;HTU21D;63746;45.402;37.922;2023-04-15T01:55:35;10.01;71.37
75164;HTU21D;63746;45.402;37.922;2023-04-15T01:58:02;10.03;71.36
75164;HTU21D;63746;45.402;37.922;2023-04-15T02:00:28;10.01;71.35
75164;HTU21D;63746;45.402;37.922;2023-04-15T02:02:54;9.98;71.32
75164;HTU21D;63746;45.402;37.922;2023-04-15T02:05:23;9.97;71.30
75164;HTU21D;63746;45.402;37.922;2023-04-15T02:07:49;9.97;71.29
75164;HTU21D;63746;45.402;37.922;2023-04-15T02:10:14;9.95;71.25
75164;HTU21D;63746;45.402;37.922;2023-04-15T02:12:41;9.92;71.20
75164;HTU21D;63746;45.402;37.922;2023-04-15T02:15:08;9.88;71.21
75164;HTU21D;63746;45.402;37.922;2023-04-15T02:17:35;9.85;71.27
75164;HTU21D;63746;45.402;37.922;2023-04-15T02:20:03;9.85;71.35
75164;HTU21D;63746;45.402;37.922;2023-04-15T02:22:33;9.84;71.42
75164;HTU21D;63746;45.402;37.922;2023-04-15T02:24:59;9.84;71.44
75164;HTU21D;63746;45.402;37.922;2023-04-15T02:27:25;9.82;71.42
75164;HTU21D;63746;45.402;37.922;2023-04-15T02:29:53;9.82;71.40
75164;HTU21D;63746;45.402;37.922;2023-04-15T02:32:19;9.80;71.40
75164;HTU21D;63746;45.402;37.922;2023-04-15T02:34:46;9.81;71.42
75164;HTU21D;63746;45.402;37.922;2023-04-15T02:37:13;9.80;71.41
75164;HTU21D;63746;45.402;37.922;2023-04-15T02:39:39;9.79;71.40
75164;HTU21D;63746;45.402;37.922;2023-04-15T02:42:05;9.77;71.42
75164;HTU21D;63746;45.402;37.922;2023-04-15T02:44:32;9.76;71.37
75164;HTU21D;63746;45.402;37.922;2023-04-15T02:47:02;9.75;71.31
75164;HTU21D;63746;45.402;37.922;2023-04-15T02:49:29;9.71;71.29
75164;HTU21D;63746;45.402;37.922;2023-04-15T02:51:55;9.68;71.29
75164;HTU21D;63746;45.402;37.922;2023-04-15T02:54:25;9.66;71.29
75164;HTU21D;63746;45.402;37.922;2023-04-15T02:56:53;9.65;71.34
75164;HTU21D;63746;45.402;37.922;2023-04-15T02:59:22;9.63;71.35
75164;HTU21D;63746;45.402;37.922;2023-04-15T03:01:48;9.62;71.35
75164;HTU21D;63746;45.402;37.922;2023-04-15T03:04:15;9.60;71.36
75164;HTU21D;63746;45.402;37.922;2023-04-15T03:06:41;9.59;71.38
75164;HTU21D;63746;45.402;37.922;2023-04-15T03:09:08;9.57;71.45
75164;HTU21D;63746;45.402;37.922;2023-04-15T03:11:36;9.59;71.47
75164;HTU21D;63746;45.402;37.922;2023-04-15T03:14:07;9.59;71.48
75164;HTU21D;63746;45.402;37.922;2023-04-15T03:16:36;9.60;71.45
75164;HTU21D;63746;45.402;37.922;2023-04-15T03:19:02;9.57;71.45
75164;HTU21D;63746;45.402;37.922;2023-04-15T03:21:28;9.59;71.46
75164;HTU21D;63746;45.402;37.922;2023-04-15T03:23:54;9.61;71.50
75164;HTU21D;63746;45.402;37.922;2023-04-15T03:26:29;9.61;71.57
75164;HTU21D;63746;45.402;37.922;2023-04-15T03:28:59;9.64;71.65
75164;HTU21D;63746;45.402;37.922;2023-04-15T03:31:26;9.66;71.64
75164;HTU21D;63746;45.402;37.922;2023-04-15T03:33:52;9.69;71.69
75164;HTU21D;63746;45.402;37.922;2023-04-15T03:36:17;9.71;71.71
75164;HTU21D;63746;45.402;37.922;2023-04-15T03:38:43;9.76;71.78
75164;HTU21D;63746;45.402;37.922;2023-04-15T03:41:09;9.81;71.89
75164;HTU21D;63746;45.402;37.922;2023-04-15T03:43:35;9.86;71.94
75164;HTU21D;63746;45.402;37.922;2023-04-15T03:46:01;9.91;71.90
75164;HTU21D;63746;45.402;37.922;2023-04-15T03:48:27;9.97;71.84
75164;HTU21D;63746;45.402;37.922;2023-04-15T03:50:53;9.99;71.87
75164;HTU21D;63746;45.402;37.922;2023-04-15T03:53:20;10.03;71.92
75164;HTU21D;63746;45.402;37.922;2023-04-15T03:55:46;10.08;71.93
75164;HTU21D;63746;45.402;37.922;2023-04-15T03:58:12;10.13;72.06
75164;HTU21D;63746;45.402;37.922;2023-04-15T04:00:38;10.20;72.19
75164;HTU21D;63746;45.402;37.922;2023-04-15T04:03:05;10.28;72.25
75164;HTU21D;63746;45.402;37.922;2023-04-15T04:05:31;10.39;72.29
75164;HTU21D;63746;45.402;37.922;2023-04-15T04:07:57;10.45;72.28
75164;HTU21D;63746;45.402;37.922;2023-04-15T04:10:23;10.53;72.31
75164;HTU21D;63746;45.402;37.922;2023-04-15T04:12:49;10.62;72.31
75164;HTU21D;63746;45.402;37.922;2023-04-15T04:15:15;10.69;72.28
75164;HTU21D;63746;45.402;37.922;2023-04-15T04:17:41;10.78;72.29
75164;HTU21D;63746;45.402;37.922;2023-04-15T04:20:07;10.84;72.29
75164;HTU21D;63746;45.402;37.922;2023-04-15T04:22:39;10.93;72.36
75164;HTU21D;63746;45.402;37.922;2023-04-15T04:25:06;11.01;72.32
75164;HTU21D;63746;45.402;37.922;2023-04-15T04:27:36;11.11;72.35
75164;HTU21D;63746;45.402;37.922;2023-04-15T04:30:03;11.18;72.35
75164;HTU21D;63746;45.402;37.922;2023-04-15T04:32:29;11.29;72.40
75164;HTU21D;63746;45.402;37.922;2023-04-15T04:34:56;11.38;72.32
75164;HTU21D;63746;45.402;37.922;2023-04-15T04:37:21;11.47;72.32
75164;HTU21D;63746;45.402;37.922;2023-04-15T04:39:48;11.55;72.29
75164;HTU21D;63746;45.402;37.922;2023-04-15T04:42:14;11.66;72.28
75164;HTU21D;63746;45.402;37.922;2023-04-15T04:44:40;11.74;72.27
75164;HTU21D;63746;45.402;37.922;2023-04-15T04:47:06;11.84;72.27
75164;HTU21D;63746;45.402;37.922;2023-04-15T04:49:32;11.96;72.24
75164;HTU21D;63746;45.402;37.922;2023-04-15T04:51:58;12.04;72.21
75164;HTU21D;63746;45.402;37.922;2023-04-15T04:54:25;12.17;72.25
75164;HTU21D;63746;45.402;37.922;2023-04-15T04:56:52;12.28;72.21
75164;HTU21D;63746;45.402;37.922;2023-04-15T04:59:18;12.37;72.13
75164;HTU21D;63746;45.402;37.922;2023-04-15T05:01:44;12.49;72.17
75164;HTU21D;63746;45.402;37.922;2023-04-15T05:04:29;12.62;72.18
75164;HTU21D;63746;45.402;37.922;2023-04-15T05:06:57;12.73;72.14
75164;HTU21D;63746;45.402;37.922;2023-04-15T05:09:23;12.86;72.11
75164;HTU21D;63746;45.402;37.922;2023-04-15T05:11:49;13.00;72.09
75164;HTU21D;63746;45.402;37.922;2023-04-15T05:14:15;13.12;72.09
75164;HTU21D;63746;45.402;37.922;2023-04-15T05:16:41;13.26;72.00
75164;HTU21D;63746;45.402;37.922;2023-04-15T05:19:07;13.38;71.87
75164;HTU21D;63746;45.402;37.922;2023-04-15T05:21:33;13.50;71.83
75164;HTU21D;63746;45.402;37.922;2023-04-15T05:23:59;13.63;71.80
75164;HTU21D;63746;45.402;37.922;2023-04-15T05:26:25;13.76;71.77
75164;HTU21D;63746;45.402;37.922;2023-04-15T05:28:52;13.88;71.67
75164;HTU21D;63746;45.402;37.922;2023-04-15T05:31:18;13.97;71.60
75164;HTU21D;63746;45.402;37.922;2023-04-15T05:33:44;14.10;71.64
75164;HTU21D;63746;45.402;37.922;2023-04-15T05:36:10;14.24;71.62
75164;HTU21D;63746;45.402;37.922;2023-04-15T05:38:36;14.38;71.57
75164;HTU21D;63746;45.402;37.922;2023-04-15T05:41:03;14.55;71.53
75164;HTU21D;63746;45.402;37.922;2023-04-15T05:43:28;14.71;71.48
75164;HTU21D;63746;45.402;37.922;2023-04-15T05:45:55;14.86;71.39
75164;HTU21D;63746;45.402;37.922;2023-04-15T05:48:21;15.02;71.32
75164;HTU21D;63746;45.402;37.922;2023-04-15T05:50:46;15.19;71.29
75164;HTU21D;63746;45.402;37.922;2023-04-15T05:53:12;15.36;71.17
75164;HTU21D;63746;45.402;37.922;2023-04-15T05:55:38;15.52;70.98
75164;HTU21D;63746;45.402;37.922;2023-04-15T05:58:05;15.65;70.85
75164;HTU21D;63746;45.402;37.922;2023-04-15T06:00:31;15.76;70.80
75164;HTU21D;63746;45.402;37.922;2023-04-15T06:02:57;15.86;70.67
75164;HTU21D;63746;45.402;37.922;2023-04-15T06:05:23;15.96;70.58
75164;HTU21D;63746;45.402;37.922;2023-04-15T06:07:49;16.07;70.62
75164;HTU21D;63746;45.402;37.922;2023-04-15T06:10:16;16.19;70.58
75164;HTU21D;63746;45.402;37.922;2023-04-15T06:12:42;16.24;70.23
75164;HTU21D;63746;45.402;37.922;2023-04-15T06:15:08;16.25;70.10
75164;HTU21D;63746;45.402;37.922;2023-04-15T06:17:37;16.21;69.94
75164;HTU21D;63746;45.402;37.922;2023-04-15T06:20:03;16.24;70.20
75164;HTU21D;63746;45.402;37.922;2023-04-15T06:22:29;16.32;70.39
75164;HTU21D;63746;45.402;37.922;2023-04-15T06:24:55;16.42;70.40
75164;HTU21D;63746;45.402;37.922;2023-04-15T06:27:21;16.54;70.44
75164;HTU21D;63746;45.402;37.922;2023-04-15T06:29:47;16.64;70.45
75164;HTU21D;63746;45.402;37.922;2023-04-15T06:32:13;16.78;70.44
75164;HTU21D;63746;45.402;37.922;2023-04-15T06:34:39;16.95;70.33
75164;HTU21D;63746;45.402;37.922;2023-04-15T06:37:05;17.04;70.23
75164;HTU21D;63746;45.402;37.922;2023-04-15T06:39:31;17.18;70.29
75164;HTU21D;63746;45.402;37.922;2023-04-15T06:41:57;17.28;70.02
75164;HTU21D;63746;45.402;37.922;2023-04-15T06:44:23;17.30;69.77
75164;HTU21D;63746;45.402;37.922;2023-04-15T06:46:49;17.23;69.55
75164;HTU21D;63746;45.402;37.922;2023-04-15T06:49:14;17.18;69.45
75164;HTU21D;63746;45.402;37.922;2023-04-15T06:51:41;17.09;69.52
75164;HTU21D;63746;45.402;37.922;2023-04-15T06:54:07;17.14;69.81
75164;HTU21D;63746;45.402;37.922;2023-04-15T06:56:33;17.22;70.19
75164;HTU21D;63746;45.402;37.922;2023-04-15T06:58:59;17.32;69.98
75164;HTU21D;63746;45.402;37.922;2023-04-15T07:01:25;17.36;69.79
75164;HTU21D;63746;45.402;37.922;2023-04-15T07:03:52;17.34;69.63
75164;HTU21D;63746;45.402;37.922;2023-04-15T07:06:18;17.30;69.55
75164;HTU21D;63746;45.402;37.922;2023-04-15T07:08:44;17.30;69.65
75164;HTU21D;63746;45.402;37.922;2023-04-15T07:11:10;17.39;69.99
75164;HTU21D;63746;45.402;37.922;2023-04-15T07:13:36;17.54;70.13
75164;HTU21D;63746;45.402;37.922;2023-04-15T07:16:02;17.72;70.18
75164;HTU21D;63746;45.402;37.922;2023-04-15T07:18:28;17.90;70.11
75164;HTU21D;63746;45.402;37.922;2023-04-15T07:20:54;18.10;70.00
75164;HTU21D;63746;45.402;37.922;2023-04-15T07:23:20;18.20;69.57
75164;HTU21D;63746;45.402;37.922;2023-04-15T07:25:47;18.19;69.28
75164;HTU21D;63746;45.402;37.922;2023-04-15T07:28:13;18.21;69.26
75164;HTU21D;63746;45.402;37.922;2023-04-15T07:30:39;18.21;69.28
75164;HTU21D;63746;45.402;37.922;2023-04-15T07:33:05;18.18;69.16
75164;HTU21D;63746;45.402;37.922;2023-04-15T07:35:31;18.11;69.01
75164;HTU21D;63746;45.402;37.922;2023-04-15T07:37:57;18.03;69.07
75164;HTU21D;63746;45.402;37.922;2023-04-15T07:40:23;17.98;69.15
75164;HTU21D;63746;45.402;37.922;2023-04-15T07:42:49;18.00;69.49
75164;HTU21D;63746;45.402;37.922;2023-04-15T07:45:16;18.11;69.63
75164;HTU21D;63746;45.402;37.922;2023-04-15T07:47:42;18.25;69.81
75164;HTU21D;63746;45.402;37.922;2023-04-15T07:50:09;18.43;69.87
75164;HTU21D;63746;45.402;37.922;2023-04-15T07:52:38;18.61;69.64
75164;HTU21D;63746;45.402;37.922;2023-04-15T07:55:05;18.72;69.49
75164;HTU21D;63746;45.402;37.922;2023-04-15T07:57:34;18.83;69.35
75164;HTU21D;63746;45.402;37.922;2023-04-15T08:00:01;18.87;69.06
75164;HTU21D;63746;45.402;37.922;2023-04-15T08:02:39;18.82;68.88
75164;HTU21D;63746;45.402;37.922;2023-04-15T08:05:06;18.76;68.84
75164;HTU21D;63746;45.402;37.922;2023-04-15T08:07:32;18.74;69.09
75164;HTU21D;63746;45.402;37.922;2023-04-15T08:09:58;18.80;69.10
75164;HTU21D;63746;45.402;37.922;2023-04-15T08:12:24;18.88;69.26
75164;HTU21D;63746;45.402;37.922;2023-04-15T08:14:50;19.03;69.36
75164;HTU21D;63746;45.402;37.922;2023-04-15T08:17:16;19.14;69.22
75164;HTU21D;63746;45.402;37.922;2023-04-15T08:19:42;19.27;69.26
75164;HTU21D;63746;45.402;37.922;2023-04-15T08:22:09;19.45;69.32
75164;HTU21D;63746;45.402;37.922;2023-04-15T08:24:36;19.61;68.99
75164;HTU21D;63746;45.402;37.922;2023-04-15T08:27:03;19.63;68.64
75164;HTU21D;63746;45.402;37.922;2023-04-15T08:29:31;19.59;68.39
75164;HTU21D;63746;45.402;37.922;2023-04-15T08:31:59;19.48;68.25
75164;HTU21D;63746;45.402;37.922;2023-04-15T08:34:25;19.39;67.33
75164;HTU21D;63746;45.402;37.922;2023-04-15T08:36:51;19.25;68.23
75164;HTU21D;63746;45.402;37.922;2023-04-15T08:39:17;19.10;68.26
75164;HTU21D;63746;45.402;37.922;2023-04-15T08:41:51;19.03;68.54
75164;HTU21D;63746;45.402;37.922;2023-04-15T08:44:23;19.08;69.00
75164;HTU21D;63746;45.402;37.922;2023-04-15T08:46:52;19.12;69.11
75164;HTU21D;63746;45.402;37.922;2023-04-15T08:49:20;19.24;69.33
75164;HTU21D;63746;45.402;37.922;2023-04-15T08:51:48;19.37;69.16
75164;HTU21D;63746;45.402;37.922;2023-04-15T08:54:14;19.52;69.29
75164;HTU21D;63746;45.402;37.922;2023-04-15T08:56:41;19.68;69.17
75164;HTU21D;63746;45.402;37.922;2023-04-15T08:59:07;19.83;68.91
75164;HTU21D;63746;45.402;37.922;2023-04-15T09:01:34;19.83;68.59
75164;HTU21D;63746;45.402;37.922;2023-04-15T09:04:02;19.85;68.78
75164;HTU21D;63746;45.402;37.922;2023-04-15T09:06:28;19.89;68.77
75164;HTU21D;63746;45.402;37.922;2023-04-15T09:08:54;19.92;68.66
75164;HTU21D;63746;45.402;37.922;2023-04-15T09:11:21;19.90;68.37
75164;HTU21D;63746;45.402;37.922;2023-04-15T09:13:48;19.80;68.31
75164;HTU21D;63746;45.402;37.922;2023-04-15T09:16:14;19.74;68.33
75164;HTU21D;63746;45.402;37.922;2023-04-15T09:18:40;19.69;68.40
75164;HTU21D;63746;45.402;37.922;2023-04-15T09:21:11;19.68;68.44
75164;HTU21D;63746;45.402;37.922;2023-04-15T09:23:39;19.75;68.85
75164;HTU21D;63746;45.402;37.922;2023-04-15T09:26:06;19.87;67.84
75164;HTU21D;63746;45.402;37.922;2023-04-15T09:28:32;19.87;68.47
75164;HTU21D;63746;45.402;37.922;2023-04-15T09:31:01;19.82;68.36
75164;HTU21D;63746;45.402;37.922;2023-04-15T09:33:28;19.73;68.32
75164;HTU21D;63746;45.402;37.922;2023-04-15T09:36:04;19.72;68.26
75164;HTU21D;63746;45.402;37.922;2023-04-15T09:38:31;19.80;68.75
75164;HTU21D;63746;45.402;37.922;2023-04-15T09:40:58;19.89;68.84
75164;HTU21D;63746;45.402;37.922;2023-04-15T09:43:37;20.05;68.71
75164;HTU21D;63746;45.402;37.922;2023-04-15T09:46:04;20.25;68.79
75164;HTU21D;63746;45.402;37.922;2023-04-15T09:48:30;20.37;68.60
75164;HTU21D;63746;45.402;37.922;2023-04-15T09:50:57;20.43;68.27
75164;HTU21D;63746;45.402;37.922;2023-04-15T09:53:25;20.45;68.26
75164;HTU21D;63746;45.402;37.922;2023-04-15T09:55:55;20.51;68.35
75164;HTU21D;63746;45.402;37.922;2023-04-15T09:58:26;20.54;68.01
75164;HTU21D;63746;45.402;37.922;2023-04-15T10:00:53;20.51;68.20
75164;HTU21D;63746;45.402;37.922;2023-04-15T10:03:24;20.59;68.36
75164;HTU21D;63746;45.402;37.922;2023-04-15T10:05:56;20.74;68.49
75164;HTU21D;63746;45.402;37.922;2023-04-15T10:08:26;20.92;68.43
75164;HTU21D;63746;45.402;37.922;2023-04-15T10:10:52;21.10;68.32
75164;HTU21D;63746;45.402;37.922;2023-04-15T10:13:26;21.28;68.03
75164;HTU21D;63746;45.402;37.922;2023-04-15T10:15:59;21.36;67.75
75164;HTU21D;63746;45.402;37.922;2023-04-15T10:18:27;21.38;67.49
75164;HTU21D;63746;45.402;37.922;2023-04-15T10:20:53;21.34;67.56
75164;HTU21D;63746;45.402;37.922;2023-04-15T10:23:21;21.36;67.72
75164;HTU21D;63746;45.402;37.922;2023-04-15T10:25:52;21.37;67.60
75164;HTU21D;63746;45.402;37.922;2023-04-15T10:28:21;21.40;67.75
75164;HTU21D;63746;45.402;37.922;2023-04-15T10:30:48;21.39;67.60
75164;HTU21D;63746;45.402;37.922;2023-04-15T10:33:16;21.36;67.53
75164;HTU21D;63746;45.402;37.922;2023-04-15T10:35:45;21.29;67.69
75164;HTU21D;63746;45.402;37.922;2023-04-15T10:38:43;21.24;66.94
75164;HTU21D;63746;45.402;37.922;2023-04-15T10:41:24;21.18;67.62
75164;HTU21D;63746;45.402;37.922;2023-04-15T10:44:03;21.17;67.39
75164;HTU21D;63746;45.402;37.922;2023-04-15T10:46:41;21.16;67.58
75164;HTU21D;63746;45.402;37.922;2023-04-15T10:51:40;21.22;67.91
75164;HTU21D;63746;45.402;37.922;2023-04-15T10:56:44;21.35;67.70
75164;HTU21D;63746;45.402;37.922;2023-04-15T10:59:10;21.28;67.46
75164;HTU21D;63746;45.402;37.922;2023-04-15T11:01:59;21.20;67.07
75164;HTU21D;63746;45.402;37.922;2023-04-15T11:04:55;21.23;67.14
75164;HTU21D;63746;45.402;37.922;2023-04-15T11:07:46;21.23;66.92
75164;HTU21D;63746;45.402;37.922;2023-04-15T11:12:39;21.02;67.67
75164;HTU21D;63746;45.402;37.922;2023-04-15T11:15:46;20.95;66.99
75164;HTU21D;63746;45.402;37.922;2023-04-15T11:18:15;20.88;67.73
75164;HTU21D;63746;45.402;37.922;2023-04-15T11:20:45;20.78;67.65
75164;HTU21D;63746;45.402;37.922;2023-04-15T11:23:11;20.65;67.82
75164;HTU21D;63746;45.402;37.922;2023-04-15T11:25:37;20.58;67.82
75164;HTU21D;63746;45.402;37.922;2023-04-15T11:28:03;20.44;67.63
75164;HTU21D;63746;45.402;37.922;2023-04-15T11:30:32;20.28;67.72
75164;HTU21D;63746;45.402;37.922;2023-04-15T11:33:01;20.19;67.82
75164;HTU21D;63746;45.402;37.922;2023-04-15T11:35:28;20.09;68.06
75164;HTU21D;63746;45.402;37.922;2023-04-15T11:37:55;20.02;68.20
75164;HTU21D;63746;45.402;37.922;2023-04-15T11:40:25;20.00;68.33
75164;HTU21D;63746;45.402;37.922;2023-04-15T11:45:57;19.92;67.82
75164;HTU21D;63746;45.402;37.922;2023-04-15T11:48:25;19.90;68.49
75164;HTU21D;63746;45.402;37.922;2023-04-15T11:51:12;19.95;68.05
75164;HTU21D;63746;45.402;37.922;2023-04-15T11:53:49;19.89;68.37
75164;HTU21D;63746;45.402;37.922;2023-04-15T11:56:18;19.90;68.43
75164;HTU21D;63746;45.402;37.922;2023-04-15T11:58:44;19.91;68.39
75164;HTU21D;63746;45.402;37.922;2023-04-15T12:01:11;19.87;68.30
75164;HTU21D;63746;45.402;37.922;2023-04-15T12:03:42;19.87;68.28
75164;HTU21D;63746;45.402;37.922;2023-04-15T12:06:15;19.88;68.39
75164;HTU21D;63746;45.402;37.922;2023-04-15T12:11:47;19.83;67.62
75164;HTU21D;63746;45.402;37.922;2023-04-15T12:14:30;19.76;67.61
75164;HTU21D;63746;45.402;37.922;2023-04-15T12:17:01;19.74;68.25
75164;HTU21D;63746;45.402;37.922;2023-04-15T12:19:41;19.72;67.88
75164;HTU21D;63746;45.402;37.922;2023-04-15T12:22:09;19.66;67.96
75164;HTU21D;63746;45.402;37.922;2023-04-15T12:24:36;19.51;68.05
75164;HTU21D;63746;45.402;37.922;2023-04-15T12:27:07;19.41;68.11
75164;HTU21D;63746;45.402;37.922;2023-04-15T12:29:35;19.29;68.21
75164;HTU21D;63746;45.402;37.922;2023-04-15T12:32:08;19.18;67.72
75164;HTU21D;63746;45.402;37.922;2023-04-15T12:34:40;19.03;68.30
75164;HTU21D;63746;45.402;37.922;2023-04-15T12:37:08;18.95;68.42
75164;HTU21D;63746;45.402;37.922;2023-04-15T12:39:36;18.87;68.63
75164;HTU21D;63746;45.402;37.922;2023-04-15T12:42:03;18.83;68.56
75164;HTU21D;63746;45.402;37.922;2023-04-15T12:44:29;18.73;68.42
75164;HTU21D;63746;45.402;37.922;2023-04-15T12:46:56;18.67;68.67
75164;HTU21D;63746;45.402;37.922;2023-04-15T12:49:23;18.65;68.82
75164;HTU21D;63746;45.402;37.922;2023-04-15T12:51:50;18.65;68.86
75164;HTU21D;63746;45.402;37.922;2023-04-15T12:54:17;18.64;68.78
75164;HTU21D;63746;45.402;37.922;2023-04-15T12:56:48;18.61;68.68
75164;HTU21D;63746;45.402;37.922;2023-04-15T12:59:15;18.55;68.72
75164;HTU21D;63746;45.402;37.922;2023-04-15T13:01:42;18.50;68.80
75164;HTU21D;63746;45.402;37.922;2023-04-15T13:04:08;18.50;68.82
75164;HTU21D;63746;45.402;37.922;2023-04-15T13:06:34;18.42;68.71
75164;HTU21D;63746;45.402;37.922;2023-04-15T13:09:01;18.32;68.46
75164;HTU21D;63746;45.402;37.922;2023-04-15T13:11:28;18.20;68.49
75164;HTU21D;63746;45.402;37.922;2023-04-15T13:14:00;18.07;68.39
75164;HTU21D;63746;45.402;37.922;2023-04-15T13:16:26;17.93;68.39
75164;HTU21D;63746;45.402;37.922;2023-04-15T13:18:52;17.85;68.69
75164;HTU21D;63746;45.402;37.922;2023-04-15T13:21:19;17.78;68.81
75164;HTU21D;63746;45.402;37.922;2023-04-15T13:23:45;17.72;68.78
75164;HTU21D;63746;45.402;37.922;2023-04-15T13:26:11;17.63;68.85
75164;HTU21D;63746;45.402;37.922;2023-04-15T13:28:37;17.58;68.91
75164;HTU21D;63746;45.402;37.922;2023-04-15T13:31:04;17.48;68.80
75164;HTU21D;63746;45.402;37.922;2023-04-15T13:33:30;17.37;68.69
75164;HTU21D;63746;45.402;37.922;2023-04-15T13:35:56;17.25;68.94
75164;HTU21D;63746;45.402;37.922;2023-04-15T13:38:23;17.16;69.00
75164;HTU21D;63746;45.402;37.922;2023-04-15T13:40:50;17.09;69.05
75164;HTU21D;63746;45.402;37.922;2023-04-15T13:43:16;17.01;68.91
75164;HTU21D;63746;45.402;37.922;2023-04-15T13:45:43;16.89;69.02
75164;HTU21D;63746;45.402;37.922;2023-04-15T13:48:09;16.79;69.00
75164;HTU21D;63746;45.402;37.922;2023-04-15T13:50:35;16.72;69.23
75164;HTU21D;63746;45.402;37.922;2023-04-15T13:53:01;16.69;69.27
75164;HTU21D;63746;45.402;37.922;2023-04-15T13:55:27;16.59;69.13
75164;HTU21D;63746;45.402;37.922;2023-04-15T13:57:53;16.51;69.26
75164;HTU21D;63746;45.402;37.922;2023-04-15T14:00:19;16.46;69.33
75164;HTU21D;63746;45.402;37.922;2023-04-15T14:02:45;16.40;69.13
75164;HTU21D;63746;45.402;37.922;2023-04-15T14:05:11;16.32;69.13
75164;HTU21D;63746;45.402;37.922;2023-04-15T14:07:37;16.25;69.33
75164;HTU21D;63746;45.402;37.922;2023-04-15T14:10:03;16.20;69.39
75164;HTU21D;63746;45.402;37.922;2023-04-15T14:12:29;16.16;69.39
75164;HTU21D;63746;45.402;37.922;2023-04-15T14:14:55;16.12;69.45
75164;HTU21D;63746;45.402;37.922;2023-04-15T14:17:21;16.07;69.50
75164;HTU21D;63746;45.402;37.922;2023-04-15T14:19:47;16.05;69.45
75164;HTU21D;63746;45.402;37.922;2023-04-15T14:22:13;15.98;69.35
75164;HTU21D;63746;45.402;37.922;2023-04-15T14:24:39;15.91;69.38
75164;HTU21D;63746;45.402;37.922;2023-04-15T14:27:05;15.88;69.33
75164;HTU21D;63746;45.402;37.922;2023-04-15T14:29:33;15.82;69.35
75164;HTU21D;63746;45.402;37.922;2023-04-15T14:31:59;15.74;69.40
75164;HTU21D;63746;45.402;37.922;2023-04-15T14:34:25;15.69;69.39
75164;HTU21D;63746;45.402;37.922;2023-04-15T14:36:51;15.62;69.26
75164;HTU21D;63746;45.402;37.922;2023-04-15T14:39:20;15.53;69.24
75164;HTU21D;63746;45.402;37.922;2023-04-15T14:41:46;15.43;69.34
75164;HTU21D;63746;45.402;37.922;2023-04-15T14:44:12;15.36;69.42
75164;HTU21D;63746;45.402;37.922;2023-04-15T14:46:38;15.30;69.49
75164;HTU21D;63746;45.402;37.922;2023-04-15T14:49:06;15.23;69.44
75164;HTU21D;63746;45.402;37.922;2023-04-15T14:51:32;15.15;69.48
75164;HTU21D;63746;45.402;37.922;2023-04-15T14:53:58;15.07;69.55
75164;HTU21D;63746;45.402;37.922;2023-04-15T14:56:25;15.01;69.52
75164;HTU21D;63746;45.402;37.922;2023-04-15T14:58:51;14.95;69.71
75164;HTU21D;63746;45.402;37.922;2023-04-15T15:01:19;14.91;69.69
75164;HTU21D;63746;45.402;37.922;2023-04-15T15:03:46;14.84;69.73
75164;HTU21D;63746;45.402;37.922;2023-04-15T15:06:12;14.82;69.90
75164;HTU21D;63746;45.402;37.922;2023-04-15T15:08:38;14.78;69.73
75164;HTU21D;63746;45.402;37.922;2023-04-15T15:11:04;14.72;69.73
75164;HTU21D;63746;45.402;37.922;2023-04-15T15:13:30;14.65;69.81
75164;HTU21D;63746;45.402;37.922;2023-04-15T15:15:56;14.62;69.84
75164;HTU21D;63746;45.402;37.922;2023-04-15T15:18:22;14.55;69.89